Airfield :
LOGIN :

Register | Disclaimer

   EN    FR    IT 

 










Legend :    VFR   Marginal VFR   IFR   Intensive IFR   Very Intensive IFR
Visi :
Ceiling :
>= 8 km
>= 3000ft
5 to 8 km
1000 to 3000 ft
1500m to 5 km
500 to 1000 ft
800 to 1500m
200 to 500 ft
< 800m
< 200 ft
Symbols :   Thunderstorms  Fog  Heavy snow  Heavy precipitations  Wind > 20 kt
SIGMETs :     Misc.  Thunderstorms  Icing  Turbulence  Mountain Waves  Volcanic Ashes







- Airport Elevation : 309 ft
- IATA code : FNI
- Download approach charts


LFTW - Nîmes Garons

CURRENT METAR :
  • 241330Z AUTO VRB03KT CAVOK 28/12 Q1017 NOSIG

EXPIRED METARs :
  • 241300Z AUTO VRB02KT CAVOK 28/12 Q1017 NOSIG
  • 241230Z AUTO 26004KT 180V340 CAVOK 27/12 Q1018 NOSIG
  • 241200Z AUTO VRB04KT CAVOK 27/12 Q1018 NOSIG
  • 241130Z AUTO VRB03KT CAVOK 26/13 Q1018 NOSIG
  • 241100Z AUTO VRB04KT CAVOK 25/14 Q1019 NOSIG

TAF TAF LFTW
Valid from the 24 at 09:00 until the 25 at 09:00 UTC


240800Z 2409/2509 VRB03KT 3000 BR VV///
BECMG 2409/2410 CAVOK
BECMG 2420/2422 36010KT
BECMG 2503/2506 0300 FG VV///
BECMG 2506/2509 4000 BR BKN008
No reported NOTAMs for that airfield.



MET'MAP, your aeronautical weather chart ! - Copyright ORBIFLY December 2007 - Disclaimer

ORBIFLY MET'MAP TEAM :

Programming & Development : Alexandra Zaïnal
Concept & Development : Baudouin d'Aumeries
Co-Development & Prog : Marc-Olivier Méhu
Technical & hardware support : Manuel Goepfert

Contact : metmap@orbifly.com




SOURCES & CREDITS :

   NOAA